createdAt,value
2023-05-17T00:01:46.929Z,8.40
2023-05-17T00:04:14.957Z,8.40
2023-05-17T00:06:42.913Z,8.40
2023-05-17T00:09:10.941Z,8.30
2023-05-17T00:11:38.908Z,8.30
2023-05-17T00:14:08.272Z,8.30
2023-05-17T00:16:36.236Z,8.30
2023-05-17T00:19:04.380Z,8.20
2023-05-17T00:21:32.524Z,8.20
2023-05-17T00:24:00.395Z,8.20
2023-05-17T00:26:28.292Z,8.10
2023-05-17T00:28:56.279Z,8.20
2023-05-17T00:31:25.620Z,8.20
2023-05-17T00:33:53.510Z,8.10
2023-05-17T00:36:21.489Z,8.10
2023-05-17T00:38:49.411Z,8.20
2023-05-17T00:41:18.136Z,8.20
2023-05-17T00:43:46.058Z,8.20
2023-05-17T00:46:13.983Z,8.20
2023-05-17T00:48:43.561Z,8.30
2023-05-17T00:51:12.804Z,8.30
2023-05-17T00:53:40.912Z,8.30
2023-05-17T00:56:09.024Z,8.30
2023-05-17T00:58:37.939Z,8.30
2023-05-17T01:01:06.043Z,8.30
2023-05-17T01:03:34.042Z,8.30
2023-05-17T01:06:03.601Z,8.30
2023-05-17T01:08:31.897Z,8.40
2023-05-17T01:11:14.465Z,8.30
2023-05-17T01:13:49.818Z,8.40
2023-05-17T01:16:23.904Z,8.40
2023-05-17T01:18:57.647Z,8.40
2023-05-17T01:21:42.595Z,8.40
2023-05-17T01:24:28.087Z,8.40
2023-05-17T01:27:00.363Z,8.40
2023-05-17T01:29:31.026Z,8.40
2023-05-17T01:32:00.575Z,8.40
2023-05-17T01:34:29.018Z,8.40
2023-05-17T01:36:57.618Z,8.50
2023-05-17T01:39:25.778Z,8.40
2023-05-17T01:42:05.810Z,8.40
2023-05-17T01:44:39.421Z,8.50
2023-05-17T01:47:14.623Z,8.50
2023-05-17T01:49:49.300Z,8.60
2023-05-17T01:52:25.394Z,8.60
2023-05-17T01:55:11.585Z,8.60
2023-05-17T01:57:43.806Z,8.70
2023-05-17T02:00:13.581Z,8.70
2023-05-17T02:02:41.595Z,8.70
2023-05-17T02:05:10.083Z,8.70
2023-05-17T02:07:39.484Z,8.70
2023-05-17T02:10:08.411Z,8.70
2023-05-17T02:12:36.410Z,8.70
2023-05-17T02:15:07.764Z,8.60
2023-05-17T02:17:35.765Z,8.60
2023-05-17T02:20:04.627Z,8.50
2023-05-17T02:22:32.559Z,8.50
2023-05-17T02:25:00.472Z,8.40
2023-05-17T02:27:28.396Z,8.40
2023-05-17T02:29:56.330Z,8.30
2023-05-17T02:32:26.222Z,8.30
2023-05-17T02:34:54.133Z,8.20
2023-05-17T02:37:22.012Z,8.20
2023-05-17T02:39:49.934Z,8.20
2023-05-17T02:42:18.040Z,8.10
2023-05-17T02:44:45.908Z,8.10
2023-05-17T02:47:13.807Z,8.10
2023-05-17T02:49:43.010Z,8.10
2023-05-17T02:52:11.051Z,8.10
2023-05-17T02:54:39.031Z,8.00
2023-05-17T02:57:07.236Z,8.00
2023-05-17T02:59:35.113Z,8.00
2023-05-17T03:02:03.043Z,8.00
2023-05-17T03:04:30.941Z,7.90
2023-05-17T03:07:00.295Z,7.90
2023-05-17T03:09:29.824Z,7.90
2023-05-17T03:11:58.164Z,7.80
2023-05-17T03:14:26.235Z,7.80
2023-05-17T03:16:54.132Z,7.80
2023-05-17T03:19:22.218Z,7.80
2023-05-17T03:21:50.389Z,7.70
2023-05-17T03:24:19.766Z,7.70
2023-05-17T03:26:47.675Z,7.60
2023-05-17T03:29:15.698Z,7.60
2023-05-17T03:31:43.692Z,7.60
2023-05-17T03:34:11.715Z,7.50
2023-05-17T03:36:41.414Z,7.50
2023-05-17T03:39:09.332Z,7.50
2023-05-17T03:41:39.041Z,7.50
2023-05-17T03:44:07.058Z,7.50
2023-05-17T03:46:35.027Z,7.40
2023-05-17T03:49:03.239Z,7.40
2023-05-17T03:51:31.252Z,7.40
2023-05-17T03:54:01.057Z,7.40
2023-05-17T03:56:29.090Z,7.40
2023-05-17T03:59:00.432Z,7.40
2023-05-17T04:01:28.361Z,7.40
2023-05-17T04:03:56.325Z,7.30
2023-05-17T04:06:25.628Z,7.40
2023-05-17T04:08:54.937Z,7.40
2023-05-17T04:11:24.215Z,7.40
2023-05-17T04:13:52.155Z,7.40
2023-05-17T04:16:22.084Z,7.40
2023-05-17T04:18:52.735Z,7.40
2023-05-17T04:21:20.960Z,7.40
2023-05-17T04:23:48.923Z,7.50
2023-05-17T04:26:16.919Z,7.50
2023-05-17T04:28:45.097Z,7.50
2023-05-17T04:31:16.640Z,7.50
2023-05-17T04:33:46.466Z,7.60
2023-05-17T04:36:14.457Z,7.60
2023-05-17T04:38:42.602Z,7.70
2023-05-17T04:41:10.528Z,7.70
2023-05-17T04:43:42.042Z,7.70
2023-05-17T04:46:10.006Z,7.80
2023-05-17T04:48:39.252Z,7.80
2023-05-17T04:51:08.836Z,7.90
2023-05-17T04:53:36.749Z,7.90
2023-05-17T04:56:05.050Z,7.90
2023-05-17T04:58:32.955Z,8.00
2023-05-17T05:01:00.857Z,8.00
2023-05-17T05:03:28.895Z,8.10
2023-05-17T05:05:56.916Z,8.20
2023-05-17T05:08:26.155Z,8.20
2023-05-17T05:10:54.081Z,8.30
2023-05-17T05:13:22.563Z,8.40
2023-05-17T05:15:50.905Z,8.50
2023-05-17T05:18:18.831Z,8.50
2023-05-17T05:20:49.294Z,8.60
2023-05-17T05:23:18.473Z,8.70
2023-05-17T05:25:48.158Z,8.80
2023-05-17T05:28:16.100Z,8.90
2023-05-17T05:30:44.121Z,9.00
2023-05-17T05:33:12.164Z,9.10
2023-05-17T05:35:40.232Z,9.30
2023-05-17T05:38:09.009Z,9.40
2023-05-17T05:40:36.923Z,9.50
2023-05-17T05:43:06.220Z,9.60
2023-05-17T05:45:34.269Z,9.60
2023-05-17T05:48:02.257Z,9.70
2023-05-17T05:50:30.456Z,9.80
2023-05-17T05:53:10.965Z,9.80
2023-05-17T05:55:45.932Z,9.90
2023-05-17T05:58:15.222Z,10.00
2023-05-17T06:00:43.179Z,10.10
2023-05-17T06:03:11.172Z,10.10
2023-05-17T06:05:40.454Z,10.20
2023-05-17T06:08:08.597Z,10.30
2023-05-17T06:10:36.535Z,10.30
2023-05-17T06:13:04.596Z,10.40
2023-05-17T06:15:33.844Z,10.50
2023-05-17T06:18:02.046Z,10.50
2023-05-17T06:20:30.371Z,10.60
2023-05-17T06:22:58.608Z,10.60
2023-05-17T06:25:26.485Z,10.70
2023-05-17T06:27:54.394Z,10.70
2023-05-17T06:30:22.345Z,10.70
2023-05-17T06:32:51.734Z,10.70
2023-05-17T06:35:19.728Z,10.70
2023-05-17T06:37:47.619Z,10.80
2023-05-17T06:40:17.172Z,10.90
2023-05-17T06:42:45.349Z,10.90
2023-05-17T06:45:13.627Z,11.00
2023-05-17T06:47:41.803Z,11.00
2023-05-17T06:50:11.804Z,11.10
2023-05-17T06:52:40.032Z,11.10
2023-05-17T06:55:09.275Z,11.20
2023-05-17T06:57:37.543Z,11.30
2023-05-17T07:00:10.826Z,11.40
2023-05-17T07:02:38.927Z,11.40
2023-05-17T07:05:08.010Z,11.50
2023-05-17T07:07:37.337Z,11.70
2023-05-17T07:10:05.998Z,11.70
2023-05-17T07:12:34.693Z,11.80
2023-05-17T07:15:02.732Z,11.90
2023-05-17T07:17:30.746Z,12.00
2023-05-17T07:19:59.136Z,12.10
2023-05-17T07:22:27.268Z,12.20
2023-05-17T07:24:56.513Z,12.20
2023-05-17T07:27:24.864Z,12.30
2023-05-17T07:29:52.893Z,12.40
2023-05-17T07:32:22.464Z,12.40
2023-05-17T07:34:50.485Z,12.50
2023-05-17T07:37:18.409Z,12.60
2023-05-17T07:39:46.412Z,12.60
2023-05-17T07:42:15.723Z,12.70
2023-05-17T07:44:43.880Z,12.60
2023-05-17T07:47:11.894Z,12.80
2023-05-17T07:49:39.835Z,13.00
2023-05-17T07:52:08.218Z,13.30
2023-05-17T07:54:36.470Z,13.60
2023-05-17T07:57:04.589Z,13.80
2023-05-17T07:59:33.893Z,14.10
2023-05-17T08:02:02.620Z,14.30
2023-05-17T08:04:30.579Z,14.50
2023-05-17T08:07:00.973Z,14.70
2023-05-17T08:09:28.947Z,14.80
2023-05-17T08:11:57.440Z,14.60
2023-05-17T08:14:26.995Z,14.60
2023-05-17T08:16:56.343Z,14.50
2023-05-17T08:19:24.363Z,14.50
2023-05-17T08:21:52.411Z,14.50
2023-05-17T08:24:20.423Z,14.60
2023-05-17T08:26:48.367Z,14.80
2023-05-17T08:29:16.325Z,14.90
2023-05-17T08:31:45.417Z,15.00
2023-05-17T08:34:14.926Z,15.10
2023-05-17T08:36:44.586Z,15.20
2023-05-17T08:39:12.970Z,15.40
2023-05-17T08:41:41.003Z,15.30
2023-05-17T08:44:09.426Z,15.30
2023-05-17T08:46:40.167Z,15.00
2023-05-17T08:49:12.995Z,14.70
2023-05-17T08:51:43.357Z,14.40
2023-05-17T08:54:11.974Z,14.20
2023-05-17T08:56:43.477Z,14.10
2023-05-17T08:59:12.200Z,14.00
2023-05-17T09:01:41.864Z,14.20
2023-05-17T09:04:10.670Z,14.40
2023-05-17T09:06:39.142Z,15.00
2023-05-17T09:09:08.517Z,15.50
2023-05-17T09:11:36.512Z,15.80
2023-05-17T09:14:06.169Z,15.80
2023-05-17T09:16:36.327Z,15.70
2023-05-17T09:19:06.352Z,15.50
2023-05-17T09:21:34.929Z,15.40
2023-05-17T09:24:08.082Z,15.20
2023-05-17T09:26:42.289Z,15.10
2023-05-17T09:29:11.552Z,15.00
2023-05-17T09:31:39.951Z,15.00
2023-05-17T09:34:08.815Z,14.80
2023-05-17T09:36:38.371Z,14.70
2023-05-17T09:39:11.913Z,14.60
2023-05-17T09:41:45.529Z,14.40
2023-05-17T09:44:14.464Z,14.20
2023-05-17T09:46:45.337Z,14.10
2023-05-17T09:49:14.144Z,14.10
2023-05-17T09:51:43.285Z,14.10
2023-05-17T09:54:12.031Z,14.10
2023-05-17T09:56:40.429Z,14.00
2023-05-17T09:59:14.716Z,14.10
2023-05-17T10:01:44.971Z,14.50
2023-05-17T10:04:14.409Z,15.40
2023-05-17T10:06:50.790Z,16.50
2023-05-17T10:09:23.274Z,17.00
2023-05-17T10:11:56.493Z,17.00
2023-05-17T10:14:31.945Z,16.80
2023-05-17T10:17:02.566Z,16.60
2023-05-17T10:19:31.289Z,16.30
2023-05-17T10:22:14.742Z,16.10
2023-05-17T10:24:49.842Z,16.00
2023-05-17T10:27:18.069Z,15.80
2023-05-17T10:29:50.244Z,15.70
2023-05-17T10:32:23.240Z,15.60
2023-05-17T10:35:05.990Z,15.50
2023-05-17T10:37:40.194Z,15.50
2023-05-17T10:40:13.088Z,15.40
2023-05-17T10:42:43.521Z,15.20
2023-05-17T10:45:14.718Z,15.10
2023-05-17T10:47:43.707Z,15.10
2023-05-17T10:50:15.487Z,15.10
2023-05-17T10:52:48.665Z,15.00
2023-05-17T10:55:20.747Z,15.10
2023-05-17T10:58:17.250Z,15.20
2023-05-17T11:00:48.181Z,15.30
2023-05-17T11:03:18.028Z,15.40
2023-05-17T11:06:22.020Z,15.40
2023-05-17T11:09:08.162Z,15.80
2023-05-17T11:11:36.325Z,16.20
2023-05-17T11:14:05.876Z,16.10
2023-05-17T11:16:39.055Z,16.30
2023-05-17T11:19:11.702Z,16.50
2023-05-17T11:21:47.322Z,16.80
2023-05-17T11:24:22.294Z,17.10
2023-05-17T11:26:51.730Z,17.20
2023-05-17T11:29:19.672Z,17.10
2023-05-17T11:31:52.778Z,17.10
2023-05-17T11:34:23.385Z,17.10
2023-05-17T11:36:53.940Z,16.90
2023-05-17T11:39:23.560Z,16.90
2023-05-17T11:41:52.813Z,16.80
2023-05-17T11:44:27.313Z,16.90
2023-05-17T11:47:04.354Z,17.10
2023-05-17T11:49:36.426Z,17.30
2023-05-17T11:52:05.636Z,17.70
2023-05-17T11:54:34.209Z,18.20
2023-05-17T11:57:03.726Z,18.60
2023-05-17T11:59:39.995Z,19.10
2023-05-17T12:02:09.975Z,19.50
2023-05-17T12:04:39.168Z,19.60
2023-05-17T12:07:10.463Z,19.50
2023-05-17T12:09:39.774Z,19.70
2023-05-17T12:12:08.628Z,19.80
2023-05-17T12:14:36.725Z,19.70
2023-05-17T12:17:08.636Z,19.40
2023-05-17T12:19:38.126Z,19.30
2023-05-17T12:22:12.516Z,19.20
2023-05-17T12:24:41.905Z,19.30
2023-05-17T12:27:10.265Z,19.80
2023-05-17T12:29:39.316Z,20.40
2023-05-17T12:32:08.969Z,20.90
2023-05-17T12:34:38.622Z,21.30
2023-05-17T12:37:10.489Z,21.70
2023-05-17T12:39:38.982Z,21.60
2023-05-17T12:42:07.824Z,21.20
2023-05-17T12:44:36.658Z,21.30
2023-05-17T12:47:04.711Z,21.70
2023-05-17T12:49:38.394Z,22.20
2023-05-17T12:52:08.180Z,22.40
2023-05-17T12:54:36.212Z,22.50
2023-05-17T12:57:15.731Z,22.30
2023-05-17T12:59:50.918Z,21.90
2023-05-17T13:02:20.773Z,21.80
2023-05-17T13:04:48.812Z,22.20
2023-05-17T13:07:24.739Z,22.30
2023-05-17T13:09:52.717Z,22.70
2023-05-17T13:12:22.027Z,22.80
2023-05-17T13:14:51.741Z,23.00
2023-05-17T13:17:25.912Z,23.20
2023-05-17T13:19:54.610Z,23.60
2023-05-17T13:22:25.217Z,24.30
2023-05-17T13:24:53.372Z,24.40
2023-05-17T13:27:21.263Z,24.40
2023-05-17T13:29:49.125Z,24.40
2023-05-17T13:32:16.985Z,24.00
2023-05-17T13:34:44.865Z,24.00
2023-05-17T13:37:13.105Z,24.10
2023-05-17T13:39:42.603Z,24.00
2023-05-17T13:42:11.067Z,23.70
2023-05-17T13:44:39.337Z,23.00
2023-05-17T13:47:08.918Z,22.90
2023-05-17T13:49:37.194Z,22.70
2023-05-17T13:52:08.529Z,22.70
2023-05-17T13:54:36.779Z,22.50
2023-05-17T13:57:07.204Z,21.80
2023-05-17T13:59:35.137Z,21.40
2023-05-17T14:02:04.447Z,21.10
2023-05-17T14:04:32.649Z,21.40
2023-05-17T14:07:00.493Z,21.70
2023-05-17T14:09:30.802Z,22.30
2023-05-17T14:12:01.054Z,22.70
2023-05-17T14:14:31.826Z,23.00
2023-05-17T14:17:01.335Z,23.10
2023-05-17T14:19:29.496Z,22.70
2023-05-17T14:21:57.432Z,22.50
2023-05-17T14:24:25.246Z,22.50
2023-05-17T14:26:53.244Z,22.50
2023-05-17T14:29:21.431Z,22.60
2023-05-17T14:31:50.669Z,22.90
2023-05-17T14:34:18.756Z,23.10
2023-05-17T14:36:46.707Z,23.10
2023-05-17T14:39:15.012Z,23.10
2023-05-17T14:41:44.763Z,22.90
2023-05-17T14:44:15.677Z,23.10
2023-05-17T14:46:43.585Z,23.00
2023-05-17T14:49:13.657Z,23.10
2023-05-17T14:51:41.688Z,23.30
2023-05-17T14:54:10.680Z,23.50
2023-05-17T14:56:39.565Z,23.10
2023-05-17T14:59:08.592Z,22.80
2023-05-17T15:01:36.789Z,22.50
2023-05-17T15:04:04.857Z,22.40
2023-05-17T15:06:34.260Z,22.40
2023-05-17T15:09:04.075Z,22.30
2023-05-17T15:11:32.152Z,22.10
2023-05-17T15:14:00.096Z,22.20
2023-05-17T15:16:28.627Z,22.50
2023-05-17T15:18:57.639Z,22.60
2023-05-17T15:21:26.059Z,22.80
2023-05-17T15:23:55.340Z,22.90
2023-05-17T15:26:23.232Z,22.80
2023-05-17T15:28:51.357Z,22.70
2023-05-17T15:31:19.354Z,22.60
2023-05-17T15:33:47.355Z,22.30
2023-05-17T15:36:16.555Z,22.30
2023-05-17T15:38:44.531Z,22.30
2023-05-17T15:41:16.713Z,22.40
2023-05-17T15:43:45.128Z,22.30
2023-05-17T15:46:13.194Z,22.30
2023-05-17T15:48:41.510Z,22.10
2023-05-17T15:51:10.102Z,21.80
2023-05-17T15:53:38.113Z,21.40
2023-05-17T15:56:06.628Z,21.10
2023-05-17T15:58:35.997Z,20.70
2023-05-17T16:01:05.170Z,20.30
2023-05-17T16:03:33.927Z,20.00
2023-05-17T16:06:02.914Z,19.90
2023-05-17T16:08:30.917Z,19.80
2023-05-17T16:11:01.401Z,19.70
2023-05-17T16:13:30.302Z,19.80
2023-05-17T16:15:59.926Z,19.90
2023-05-17T16:18:28.299Z,20.20
2023-05-17T16:21:01.139Z,20.20
2023-05-17T16:23:29.127Z,20.30
2023-05-17T16:25:57.552Z,20.30
2023-05-17T16:28:25.716Z,20.30
2023-05-17T16:30:54.305Z,20.20
2023-05-17T16:33:23.739Z,20.10
2023-05-17T16:35:52.073Z,20.10
2023-05-17T16:38:20.093Z,20.10
2023-05-17T16:40:48.040Z,20.10
2023-05-17T16:43:16.501Z,20.00
2023-05-17T16:45:45.628Z,19.70
2023-05-17T16:48:14.743Z,19.60
2023-05-17T16:50:44.163Z,19.60
2023-05-17T16:53:13.106Z,19.50
2023-05-17T16:55:42.166Z,19.50
2023-05-17T16:58:10.268Z,19.50
2023-05-17T17:00:38.376Z,19.30
2023-05-17T17:03:09.199Z,19.10
2023-05-17T17:05:37.286Z,18.90
2023-05-17T17:08:07.069Z,18.80
2023-05-17T17:10:35.860Z,18.60
2023-05-17T17:13:03.821Z,18.40
2023-05-17T17:15:31.788Z,18.30
2023-05-17T17:17:59.801Z,18.20
2023-05-17T17:20:28.019Z,18.10
2023-05-17T17:22:56.040Z,18.00
2023-05-17T17:25:25.602Z,17.80
2023-05-17T17:27:53.537Z,17.50
2023-05-17T17:30:21.628Z,17.20
2023-05-17T17:32:49.645Z,16.90
2023-05-17T17:35:17.772Z,16.80
2023-05-17T17:37:45.712Z,16.60
2023-05-17T17:40:13.852Z,16.50
2023-05-17T17:42:43.395Z,16.40
2023-05-17T17:45:11.710Z,16.30
2023-05-17T17:47:39.698Z,16.20
2023-05-17T17:50:08.941Z,16.10
2023-05-17T17:52:37.167Z,16.00
2023-05-17T17:55:05.758Z,16.00
2023-05-17T17:57:33.877Z,15.90
2023-05-17T18:00:04.229Z,15.80
2023-05-17T18:02:32.212Z,15.70
2023-05-17T18:05:00.260Z,15.60
2023-05-17T18:07:28.375Z,15.50
2023-05-17T18:09:56.957Z,15.40
2023-05-17T18:12:27.078Z,15.30
2023-05-17T18:14:55.252Z,15.30
2023-05-17T18:17:24.712Z,15.20
2023-05-17T18:19:53.354Z,15.10
2023-05-17T18:22:21.265Z,15.00
2023-05-17T18:24:49.415Z,15.00
2023-05-17T18:27:17.405Z,14.90
2023-05-17T18:29:45.347Z,14.80
2023-05-17T18:32:13.335Z,14.80
2023-05-17T18:34:42.661Z,14.70
2023-05-17T18:37:10.821Z,14.60
2023-05-17T18:39:38.825Z,14.60
2023-05-17T18:42:06.970Z,14.50
2023-05-17T18:44:36.020Z,14.40
2023-05-17T18:47:04.114Z,14.30
2023-05-17T18:49:32.347Z,14.20
2023-05-17T18:52:01.652Z,14.10
2023-05-17T18:54:29.580Z,14.00
2023-05-17T18:56:57.541Z,13.90
2023-05-17T18:59:25.664Z,13.90
2023-05-17T19:01:53.546Z,13.80
2023-05-17T19:04:22.538Z,13.70
2023-05-17T19:06:50.745Z,13.60
2023-05-17T19:09:20.005Z,13.50
2023-05-17T19:11:48.538Z,13.50
2023-05-17T19:14:16.659Z,13.50
2023-05-17T19:16:45.435Z,13.40
2023-05-17T19:19:13.459Z,13.30
2023-05-17T19:21:41.395Z,13.20
2023-05-17T19:24:10.555Z,13.10
2023-05-17T19:26:39.853Z,13.00
2023-05-17T19:29:07.828Z,12.90
2023-05-17T19:31:36.345Z,12.80
2023-05-17T19:34:04.350Z,12.80
2023-05-17T19:36:32.344Z,12.70
2023-05-17T19:39:00.294Z,12.60
2023-05-17T19:41:28.347Z,12.50
2023-05-17T19:43:57.737Z,12.40
2023-05-17T19:46:25.828Z,12.40
2023-05-17T19:48:53.906Z,12.30
2023-05-17T19:51:21.893Z,12.20
2023-05-17T19:53:54.014Z,12.20
2023-05-17T19:56:24.279Z,12.10
2023-05-17T19:58:52.552Z,12.10
2023-05-17T20:01:22.820Z,12.10
2023-05-17T20:03:50.988Z,12.00
2023-05-17T20:06:19.030Z,12.00
2023-05-17T20:08:47.097Z,11.90
2023-05-17T20:11:15.364Z,11.90
2023-05-17T20:13:43.336Z,11.80
2023-05-17T20:16:13.566Z,11.80
2023-05-17T20:18:44.078Z,11.70
2023-05-17T20:21:15.102Z,11.60
2023-05-17T20:23:43.170Z,11.60
2023-05-17T20:26:16.172Z,11.40
2023-05-17T20:28:44.438Z,11.40
2023-05-17T20:31:12.654Z,11.20
2023-05-17T20:33:44.035Z,11.10
2023-05-17T20:36:14.166Z,11.00
2023-05-17T20:38:43.549Z,10.90
2023-05-17T20:41:11.605Z,10.90
2023-05-17T20:43:39.731Z,10.90
2023-05-17T20:46:09.400Z,10.80
2023-05-17T20:48:38.886Z,10.80
2023-05-17T20:51:08.500Z,10.70
2023-05-17T20:53:36.686Z,10.60
2023-05-17T20:56:04.628Z,10.60
2023-05-17T20:58:32.637Z,10.60
2023-05-17T21:01:01.171Z,10.60
2023-05-17T21:03:33.392Z,10.60
2023-05-17T21:06:02.122Z,10.60
2023-05-17T21:08:32.075Z,10.50
2023-05-17T21:11:00.382Z,10.60
2023-05-17T21:13:28.540Z,10.50
2023-05-17T21:15:56.965Z,10.50
2023-05-17T21:18:25.016Z,10.60
2023-05-17T21:20:53.470Z,10.60
2023-05-17T21:23:22.304Z,10.60
2023-05-17T21:25:51.619Z,10.60
2023-05-17T21:28:19.692Z,10.60
2023-05-17T21:30:47.593Z,10.60
2023-05-17T21:33:15.531Z,10.70
2023-05-17T21:35:43.442Z,10.70
2023-05-17T21:38:11.339Z,10.70
2023-05-17T21:40:39.906Z,10.70
2023-05-17T21:43:10.197Z,10.70
2023-05-17T21:45:38.372Z,10.70
2023-05-17T21:48:06.901Z,10.70
2023-05-17T21:50:35.101Z,10.70
2023-05-17T21:53:03.114Z,10.70
2023-05-17T21:55:36.392Z,10.70
2023-05-17T21:58:10.393Z,10.70
2023-05-17T22:00:38.359Z,10.70
2023-05-17T22:03:06.497Z,10.60
2023-05-17T22:05:34.464Z,10.60
2023-05-17T22:08:02.392Z,10.50
2023-05-17T22:10:30.520Z,10.50
2023-05-17T22:12:58.630Z,10.50
2023-05-17T22:15:27.845Z,10.40
2023-05-17T22:17:55.849Z,10.40
2023-05-17T22:20:26.287Z,10.40
2023-05-17T22:22:54.202Z,10.30
2023-05-17T22:25:22.364Z,10.40
2023-05-17T22:27:50.427Z,10.30
2023-05-17T22:30:18.412Z,10.30
2023-05-17T22:32:48.050Z,10.20
2023-05-17T22:35:16.108Z,10.10
2023-05-17T22:37:45.402Z,10.10
2023-05-17T22:40:14.035Z,10.10
2023-05-17T22:42:43.054Z,10.00
2023-05-17T22:45:14.622Z,10.00
2023-05-17T22:47:43.521Z,10.00
2023-05-17T22:50:14.423Z,9.90
2023-05-17T22:52:42.704Z,9.90
2023-05-17T22:55:11.251Z,9.80
2023-05-17T22:57:39.506Z,9.80
2023-05-17T23:00:09.316Z,9.70
2023-05-17T23:02:37.304Z,9.70
2023-05-17T23:05:05.877Z,9.60
2023-05-17T23:07:38.325Z,9.50
2023-05-17T23:10:08.315Z,9.50
2023-05-17T23:12:37.129Z,9.40
2023-05-17T23:15:06.073Z,9.40
2023-05-17T23:17:35.589Z,9.30
2023-05-17T23:20:10.546Z,9.30
2023-05-17T23:22:40.841Z,9.20
2023-05-17T23:25:09.461Z,9.20
2023-05-17T23:27:37.562Z,9.10
2023-05-17T23:30:07.387Z,9.10
2023-05-17T23:32:35.466Z,9.10
2023-05-17T23:35:04.809Z,9.00
2023-05-17T23:37:33.211Z,8.90
2023-05-17T23:40:03.524Z,8.90
2023-05-17T23:42:31.853Z,8.90
2023-05-17T23:45:00.572Z,8.90
2023-05-17T23:47:29.197Z,8.80
2023-05-17T23:49:58.013Z,8.80
2023-05-17T23:52:29.818Z,8.70
2023-05-17T23:54:58.964Z,8.70
2023-05-17T23:57:28.374Z,8.70
2023-05-17T23:59:56.526Z,8.60
